Grannis, AR

9:15 PM CST on December 24, 2014 (GMT -0600)
Jones Ridge | Change Station
CLOSE
Current Station
Personal Weather Station
Location: De Queen, AR
Elevation: 502 ft
Nearby Weather Stations

Elev 502 ft 34.07 °N, 94.32 °W | Updated 8 seconds ago

Clear
Clear
31.3 °F
Feels Like 31 °F
N
0.0
Wind Variable Wind from NW
Gusts 0.0 mph

Today
High -- | Low -- °F
--% Chance of Precip.
Yesterday
High -- | Low -- °F
Precip. -- in
7:20 AM 5:13 PM
Waxing Crescent, 13% visible
Pressure 30.03 in
Visibility 7.0 miles
Clouds Clear
Windchill 31 °F
Dew Point 30 °F
Humidity 94%
Rainfall 0.00 in
Snow Depth Not available.
UV 0 out of 12
Pollen 6.50 out of 12
Air Quality Not available.
Flu Activity Not available.
METAR KDEQ 250253Z AUTO 00000KT 7SM CLR 00/M01 A3003 RMK AO2 SLP169 T00001011 51011

More Conditions Fewer Conditions

Pressure 30.03 in
Visibility 7.0 miles
Clouds Clear
Windchill 31 °F
Dew Point 30 °F
Humidity 94%
Rainfall 0.00 in
Snow Depth Not available.
UV 0 out of 12
Pollen 6.50 out of 12
Air Quality Not available.
Flu Activity Not available.
METAR KDEQ 250253Z AUTO 00000KT 7SM CLR 00/M01 A3003 RMK AO2 SLP169 T00001011 51011

More Conditions Fewer Conditions

10-Day Weather Forecast

Almanac

Astronomy

Dec. 24, 2014 Rise Set
Actual Time
Civil Twilight
Nautical Twilight
Astronomical Twilight
Moon
Length of Visible Light
Length of Day
Tomorrow will be .
, % of the Moon is Illuminated

Today's Extremes

State Highs State Lows

Community

WunderPhotos

Upload Photos

1,780,224 photos uploaded!

WunderBlogs® & News

Nearby

Air Quality

  Air Quality AQ Index Pollutant
Not available.

Snow Depth

Station Depth Elevation

Earthquake Activity

City Distance Mag. Time & Date
Minimum magnitude displayed is 2.5.

Coastal Water Temperatures

Place Temperature

Nearby Weather Stations